createdAt,value
2024-05-09T00:00:06.774Z,95560.00
2024-05-09T00:01:05.713Z,95561.00
2024-05-09T00:02:05.648Z,95561.00
2024-05-09T00:03:05.665Z,95560.00
2024-05-09T00:04:05.743Z,95557.00
2024-05-09T00:05:05.757Z,95558.00
2024-05-09T00:06:05.880Z,95557.00
2024-05-09T00:07:05.627Z,95555.00
2024-05-09T00:08:05.721Z,95555.00
2024-05-09T00:09:05.635Z,95557.00
2024-05-09T00:10:09.222Z,95554.00
2024-05-09T00:11:06.815Z,95554.00
2024-05-09T00:12:05.749Z,95555.00
2024-05-09T00:13:05.752Z,95555.00
2024-05-09T00:14:05.710Z,95556.00
2024-05-09T00:15:05.688Z,95557.00
2024-05-09T00:16:05.628Z,95555.00
2024-05-09T00:17:05.849Z,95557.00
2024-05-09T00:18:06.374Z,95558.00
2024-05-09T00:19:05.730Z,95555.00
2024-05-09T00:20:14.254Z,95555.00
2024-05-09T00:21:06.747Z,95555.00
2024-05-09T00:22:05.665Z,95557.00
2024-05-09T00:23:05.713Z,95556.00
2024-05-09T00:24:05.663Z,95559.00
2024-05-09T00:25:05.671Z,95557.00
2024-05-09T00:26:05.736Z,95558.00
2024-05-09T00:27:05.769Z,95555.00
2024-05-09T00:28:05.679Z,95555.00
2024-05-09T00:29:05.660Z,95554.00
2024-05-09T00:30:07.293Z,95553.00
2024-05-09T00:31:05.681Z,95552.00
2024-05-09T00:32:05.694Z,95552.00
2024-05-09T00:33:06.944Z,95552.00
2024-05-09T00:34:06.077Z,95549.00
2024-05-09T00:35:05.948Z,95548.00
2024-05-09T00:36:05.984Z,95546.00
2024-05-09T00:37:06.079Z,95546.00
2024-05-09T00:38:06.419Z,95547.00
2024-05-09T00:39:06.168Z,95547.00
2024-05-09T00:40:07.610Z,95544.00
2024-05-09T00:41:07.269Z,95542.00
2024-05-09T00:42:06.208Z,95540.00
2024-05-09T00:43:06.275Z,95541.00
2024-05-09T00:44:06.211Z,95537.00
2024-05-09T00:45:06.202Z,95538.00
2024-05-09T00:46:06.196Z,95539.00
2024-05-09T00:47:06.360Z,95538.00
2024-05-09T00:48:06.796Z,95538.00
2024-05-09T00:49:06.275Z,95537.00
2024-05-09T00:50:10.112Z,95534.00
2024-05-09T00:51:07.290Z,95534.00
2024-05-09T00:52:06.248Z,95532.00
2024-05-09T00:53:06.660Z,95530.00
2024-05-09T00:54:06.208Z,95527.00
2024-05-09T00:55:06.227Z,95526.00
2024-05-09T00:56:06.232Z,95522.00
2024-05-09T00:57:06.272Z,95519.00
2024-05-09T00:58:06.198Z,95518.00
2024-05-09T00:59:06.238Z,95516.00
2024-05-09T01:00:12.202Z,95514.00
2024-05-09T01:01:07.292Z,95514.00
2024-05-09T01:02:06.302Z,95514.00
2024-05-09T01:03:06.437Z,95513.00
2024-05-09T01:04:06.435Z,95512.00
2024-05-09T01:05:06.342Z,95511.00
2024-05-09T01:06:06.244Z,95510.00
2024-05-09T01:07:06.255Z,95510.00
2024-05-09T01:08:06.287Z,95508.00
2024-05-09T01:09:06.253Z,95507.00
2024-05-09T01:10:11.707Z,95507.00
2024-05-09T01:11:07.350Z,95507.00
2024-05-09T01:12:06.313Z,95506.00
2024-05-09T01:13:06.726Z,95507.00
2024-05-09T01:14:06.264Z,95508.00
2024-05-09T01:15:06.244Z,95505.00
2024-05-09T01:16:06.294Z,95507.00
2024-05-09T01:17:06.355Z,95503.00
2024-05-09T01:18:06.475Z,95503.00
2024-05-09T01:19:06.380Z,95505.00
2024-05-09T01:20:10.453Z,95506.00
2024-05-09T01:21:06.275Z,95506.00
2024-05-09T01:22:06.269Z,95505.00
2024-05-09T01:23:06.324Z,95505.00
2024-05-09T01:24:06.248Z,95507.00
2024-05-09T01:25:06.279Z,95507.00
2024-05-09T01:26:06.320Z,95508.00
2024-05-09T01:27:06.301Z,95505.00
2024-05-09T01:28:06.307Z,95508.00
2024-05-09T01:29:06.324Z,95509.00
2024-05-09T01:30:09.539Z,95507.00
2024-05-09T01:31:07.296Z,95509.00
2024-05-09T01:32:06.355Z,95512.00
2024-05-09T01:33:08.213Z,95511.00
2024-05-09T01:34:06.318Z,95513.00
2024-05-09T01:35:06.279Z,95513.00
2024-05-09T01:36:06.283Z,95512.00
2024-05-09T01:37:06.321Z,95511.00
2024-05-09T01:38:06.459Z,95514.00
2024-05-09T01:39:06.286Z,95512.00
2024-05-09T01:40:09.703Z,95509.00
2024-05-09T01:41:07.365Z,95510.00
2024-05-09T01:42:06.272Z,95510.00
2024-05-09T01:43:06.376Z,95510.00
2024-05-09T01:44:06.304Z,95509.00
2024-05-09T01:45:06.295Z,95510.00
2024-05-09T01:46:06.290Z,95508.00
2024-05-09T01:47:06.452Z,95507.00
2024-05-09T01:48:06.704Z,95509.00
2024-05-09T01:49:06.492Z,95507.00
2024-05-09T01:50:09.070Z,95508.00
2024-05-09T01:51:06.336Z,95509.00
2024-05-09T01:52:06.311Z,95508.00
2024-05-09T01:53:06.360Z,95506.00
2024-05-09T01:54:06.310Z,95509.00
2024-05-09T01:55:06.879Z,95510.00
2024-05-09T01:56:06.348Z,95509.00
2024-05-09T01:57:06.318Z,95508.00
2024-05-09T01:58:06.355Z,95509.00
2024-05-09T01:59:06.396Z,95507.00
2024-05-09T02:00:07.914Z,95508.00
2024-05-09T02:01:06.336Z,95507.00
2024-05-09T02:02:06.414Z,95510.00
2024-05-09T02:03:06.469Z,95509.00
2024-05-09T02:04:06.859Z,95509.00
2024-05-09T02:05:06.482Z,95508.00
2024-05-09T02:06:06.552Z,95508.00
2024-05-09T02:07:06.387Z,95508.00
2024-05-09T02:08:06.484Z,95506.00
2024-05-09T02:09:06.443Z,95507.00
2024-05-09T02:10:13.672Z,95508.00
2024-05-09T02:11:07.516Z,95508.00
2024-05-09T02:12:06.714Z,95505.00
2024-05-09T02:13:06.483Z,95506.00
2024-05-09T02:14:06.490Z,95502.00
2024-05-09T02:15:06.489Z,95503.00
2024-05-09T02:16:06.500Z,95506.00
2024-05-09T02:17:06.572Z,95504.00
2024-05-09T02:18:06.689Z,95505.00
2024-05-09T02:19:06.663Z,95504.00
2024-05-09T02:20:06.646Z,95505.00
2024-05-09T02:21:06.749Z,95507.00
2024-05-09T02:22:06.637Z,95507.00
2024-05-09T02:23:07.228Z,95505.00
2024-05-09T02:24:06.757Z,95506.00
2024-05-09T02:25:06.787Z,95504.00
2024-05-09T02:26:06.951Z,95504.00
2024-05-09T02:27:06.928Z,95502.00
2024-05-09T02:28:06.987Z,95500.00
2024-05-09T02:29:07.079Z,95501.00
2024-05-09T02:30:18.348Z,95501.00
2024-05-09T02:31:08.096Z,95499.00
2024-05-09T02:32:07.156Z,95500.00
2024-05-09T02:33:07.645Z,95499.00
2024-05-09T02:34:07.238Z,95499.00
2024-05-09T02:35:07.153Z,95498.00
2024-05-09T02:36:07.101Z,95495.00
2024-05-09T02:37:07.107Z,95497.00
2024-05-09T02:38:07.234Z,95495.00
2024-05-09T02:39:07.119Z,95494.00
2024-05-09T02:40:11.530Z,95494.00
2024-05-09T02:41:08.201Z,95495.00
2024-05-09T02:42:07.156Z,95494.00
2024-05-09T02:43:07.752Z,95495.00
2024-05-09T02:44:07.210Z,95496.00
2024-05-09T02:45:07.157Z,95496.00
2024-05-09T02:46:07.180Z,95496.00
2024-05-09T02:47:07.442Z,95497.00
2024-05-09T02:48:07.586Z,95497.00
2024-05-09T02:49:07.469Z,95492.00
2024-05-09T02:50:08.262Z,95494.00
2024-05-09T02:51:07.441Z,95497.00
2024-05-09T02:52:07.309Z,95496.00
2024-05-09T02:53:07.649Z,95496.00
2024-05-09T02:54:07.450Z,95494.00
2024-05-09T02:55:07.528Z,95496.00
2024-05-09T02:56:07.614Z,95497.00
2024-05-09T02:57:07.643Z,95497.00
2024-05-09T02:58:07.706Z,95496.00
2024-05-09T02:59:07.759Z,95498.00
2024-05-09T03:00:12.251Z,95496.00
2024-05-09T03:01:08.935Z,95495.00
2024-05-09T03:02:07.898Z,95500.00
2024-05-09T03:03:08.765Z,95496.00
2024-05-09T03:04:08.018Z,95497.00
2024-05-09T03:05:07.854Z,95498.00
2024-05-09T03:06:07.813Z,95496.00
2024-05-09T03:07:07.827Z,95496.00
2024-05-09T03:08:08.011Z,95494.00
2024-05-09T03:09:07.847Z,95495.00
2024-05-09T03:10:14.924Z,95492.00
2024-05-09T03:11:09.012Z,95491.00
2024-05-09T03:12:08.022Z,95492.00
2024-05-09T03:13:08.047Z,95491.00
2024-05-09T03:14:07.953Z,95492.00
2024-05-09T03:15:07.926Z,95492.00
2024-05-09T03:16:07.920Z,95492.00
2024-05-09T03:17:07.943Z,95492.00
2024-05-09T03:18:08.111Z,95493.00
2024-05-09T03:19:07.948Z,95493.00
2024-05-09T03:20:17.015Z,95492.00
2024-05-09T03:21:09.072Z,95494.00
2024-05-09T03:22:07.968Z,95494.00
2024-05-09T03:23:09.225Z,95496.00
2024-05-09T03:24:07.997Z,95498.00
2024-05-09T03:25:07.999Z,95497.00
2024-05-09T03:26:07.980Z,95499.00
2024-05-09T03:27:07.966Z,95498.00
2024-05-09T03:28:08.038Z,95496.00
2024-05-09T03:29:08.120Z,95497.00
2024-05-09T03:30:09.939Z,95496.00
2024-05-09T03:31:08.181Z,95497.00
2024-05-09T03:32:08.428Z,95497.00
2024-05-09T03:33:08.491Z,95499.00
2024-05-09T03:34:08.432Z,95497.00
2024-05-09T03:35:08.462Z,95498.00
2024-05-09T03:36:11.069Z,95496.00
2024-05-09T03:37:08.487Z,95498.00
2024-05-09T03:38:08.553Z,95498.00
2024-05-09T03:39:08.495Z,95501.00
2024-05-09T03:40:14.462Z,95498.00
2024-05-09T03:41:09.575Z,95499.00
2024-05-09T03:42:08.509Z,95500.00
2024-05-09T03:43:08.527Z,95498.00
2024-05-09T03:44:08.594Z,95501.00
2024-05-09T03:45:08.545Z,95501.00
2024-05-09T03:46:08.547Z,95501.00
2024-05-09T03:47:08.533Z,95500.00
2024-05-09T03:48:08.902Z,95500.00
2024-05-09T03:49:08.638Z,95500.00
2024-05-09T03:50:15.173Z,95502.00
2024-05-09T03:51:09.834Z,95501.00
2024-05-09T03:52:08.636Z,95502.00
2024-05-09T03:53:08.675Z,95502.00
2024-05-09T03:54:08.645Z,95505.00
2024-05-09T03:55:08.643Z,95504.00
2024-05-09T03:56:08.692Z,95509.00
2024-05-09T03:57:08.663Z,95507.00
2024-05-09T03:58:08.712Z,95507.00
2024-05-09T03:59:08.716Z,95510.00
2024-05-09T04:00:17.735Z,95512.00
2024-05-09T04:01:09.808Z,95512.00
2024-05-09T04:02:08.887Z,95512.00
2024-05-09T04:03:11.289Z,95510.00
2024-05-09T04:04:08.924Z,95513.00
2024-05-09T04:05:08.819Z,95515.00
2024-05-09T04:06:08.798Z,95519.00
2024-05-09T04:07:08.793Z,95520.00
2024-05-09T04:08:08.957Z,95521.00
2024-05-09T04:09:08.747Z,95523.00
2024-05-09T04:10:11.301Z,95524.00
2024-05-09T04:11:09.919Z,95526.00
2024-05-09T04:12:08.814Z,95525.00
2024-05-09T04:13:08.782Z,95527.00
2024-05-09T04:14:08.842Z,95527.00
2024-05-09T04:15:12.150Z,95526.00
2024-05-09T04:16:08.804Z,95527.00
2024-05-09T04:17:08.939Z,95524.00
2024-05-09T04:18:08.961Z,95525.00
2024-05-09T04:19:08.940Z,95523.00
2024-05-09T04:20:12.421Z,95523.00
2024-05-09T04:21:09.925Z,95524.00
2024-05-09T04:22:08.791Z,95524.00
2024-05-09T04:23:09.541Z,95525.00
2024-05-09T04:24:16.758Z,95522.00
2024-05-09T04:25:16.800Z,95527.00
2024-05-09T04:26:16.847Z,95525.00
2024-05-09T04:27:16.866Z,95525.00
2024-05-09T04:28:16.766Z,95526.00
2024-05-09T04:29:16.855Z,95529.00
2024-05-09T04:30:25.518Z,95531.00
2024-05-09T04:31:28.791Z,95531.00
2024-05-09T04:32:28.888Z,95533.00
2024-05-09T04:33:28.935Z,95531.00
2024-05-09T04:34:28.872Z,95533.00
2024-05-09T04:35:28.837Z,95532.00
2024-05-09T04:36:28.811Z,95532.00
2024-05-09T04:37:28.794Z,95531.00
2024-05-09T04:38:28.821Z,95532.00
2024-05-09T04:39:28.777Z,95532.00
2024-05-09T04:40:33.939Z,95533.00
2024-05-09T04:41:29.932Z,95532.00
2024-05-09T04:42:28.786Z,95533.00
2024-05-09T04:43:28.799Z,95532.00
2024-05-09T04:44:28.937Z,95533.00
2024-05-09T04:45:28.826Z,95533.00
2024-05-09T04:46:28.799Z,95534.00
2024-05-09T04:47:28.959Z,95535.00
2024-05-09T04:48:29.000Z,95535.00
2024-05-09T04:49:28.910Z,95535.00
2024-05-09T04:50:35.950Z,95537.00
2024-05-09T04:51:29.820Z,95538.00
2024-05-09T04:52:28.802Z,95540.00
2024-05-09T04:53:28.857Z,95541.00
2024-05-09T04:54:35.829Z,95542.00
2024-05-09T04:55:29.794Z,95543.00
2024-05-09T04:56:28.901Z,95541.00
2024-05-09T04:57:28.835Z,95543.00
2024-05-09T04:58:28.865Z,95545.00
2024-05-09T04:59:28.856Z,95543.00
2024-05-09T05:00:35.427Z,95541.00
2024-05-09T05:01:29.989Z,95541.00
2024-05-09T05:02:28.901Z,95544.00
2024-05-09T05:03:29.071Z,95545.00
2024-05-09T05:04:28.884Z,95544.00
2024-05-09T05:05:28.895Z,95545.00
2024-05-09T05:06:28.824Z,95545.00
2024-05-09T05:07:28.836Z,95545.00
2024-05-09T05:08:28.835Z,95544.00
2024-05-09T05:09:28.849Z,95544.00
2024-05-09T05:10:35.035Z,95543.00
2024-05-09T05:11:30.020Z,95544.00
2024-05-09T05:12:28.994Z,95542.00
2024-05-09T05:13:28.935Z,95546.00
2024-05-09T05:14:29.106Z,95547.00
2024-05-09T05:15:28.954Z,95544.00
2024-05-09T05:16:28.943Z,95545.00
2024-05-09T05:17:29.118Z,95546.00
2024-05-09T05:18:29.242Z,95546.00
2024-05-09T05:19:29.183Z,95549.00
2024-05-09T05:20:33.548Z,95549.00
2024-05-09T05:21:30.184Z,95547.00
2024-05-09T05:22:29.094Z,95546.00
2024-05-09T05:23:29.180Z,95547.00
2024-05-09T05:24:29.085Z,95546.00
2024-05-09T05:25:29.085Z,95548.00
2024-05-09T05:26:29.073Z,95549.00
2024-05-09T05:27:29.072Z,95546.00
2024-05-09T05:28:29.144Z,95547.00
2024-05-09T05:29:29.205Z,95547.00
2024-05-09T05:30:34.318Z,95547.00
2024-05-09T05:31:30.265Z,95548.00
2024-05-09T05:32:29.437Z,95549.00
2024-05-09T05:33:29.385Z,95553.00
2024-05-09T05:34:29.294Z,95553.00
2024-05-09T05:35:29.373Z,95553.00
2024-05-09T05:36:29.238Z,95555.00
2024-05-09T05:37:29.237Z,95555.00
2024-05-09T05:38:29.306Z,95557.00
2024-05-09T05:39:29.229Z,95556.00
2024-05-09T05:40:36.076Z,95556.00
2024-05-09T05:41:30.383Z,95557.00
2024-05-09T05:42:29.321Z,95558.00
2024-05-09T05:43:29.273Z,95558.00
2024-05-09T05:44:29.334Z,95558.00
2024-05-09T05:45:29.289Z,95559.00
2024-05-09T05:46:29.284Z,95558.00
2024-05-09T05:47:29.379Z,95560.00
2024-05-09T05:48:29.385Z,95557.00
2024-05-09T05:49:29.402Z,95559.00
2024-05-09T05:50:35.485Z,95559.00
2024-05-09T05:51:30.361Z,95561.00
2024-05-09T05:52:29.333Z,95558.00
2024-05-09T05:53:29.428Z,95557.00
2024-05-09T05:54:29.345Z,95558.00
2024-05-09T05:55:29.350Z,95557.00
2024-05-09T05:56:29.371Z,95557.00
2024-05-09T05:57:29.475Z,95555.00
2024-05-09T05:58:29.347Z,95558.00
2024-05-09T05:59:29.536Z,95556.00
2024-05-09T06:00:35.519Z,95554.00
2024-05-09T06:01:30.463Z,95553.00
2024-05-09T06:02:29.447Z,95551.00
2024-05-09T06:03:29.610Z,95551.00
2024-05-09T06:04:29.414Z,95550.00
2024-05-09T06:05:29.465Z,95548.00
2024-05-09T06:06:29.393Z,95548.00
2024-05-09T06:07:29.407Z,95548.00
2024-05-09T06:08:30.544Z,95547.00
2024-05-09T06:09:29.384Z,95550.00
2024-05-09T06:10:35.223Z,95550.00
2024-05-09T06:11:30.503Z,95551.00
2024-05-09T06:12:29.498Z,95550.00
2024-05-09T06:13:29.409Z,95551.00
2024-05-09T06:14:29.534Z,95548.00
2024-05-09T06:15:29.443Z,95551.00
2024-05-09T06:16:29.396Z,95549.00
2024-05-09T06:17:29.570Z,95550.00
2024-05-09T06:18:29.591Z,95549.00
2024-05-09T06:19:29.508Z,95550.00
2024-05-09T06:20:35.336Z,95548.00
2024-05-09T06:21:30.465Z,95548.00
2024-05-09T06:22:29.403Z,95548.00
2024-05-09T06:23:29.437Z,95549.00
2024-05-09T06:24:29.415Z,95549.00
2024-05-09T06:25:29.440Z,95548.00
2024-05-09T06:26:29.531Z,95549.00
2024-05-09T06:27:29.410Z,95546.00
2024-05-09T06:28:29.448Z,95547.00
2024-05-09T06:29:29.490Z,95547.00
2024-05-09T06:30:37.080Z,95543.00
2024-05-09T06:31:30.438Z,95545.00
2024-05-09T06:32:29.549Z,95544.00
2024-05-09T06:33:29.810Z,95546.00
2024-05-09T06:34:29.486Z,95542.00
2024-05-09T06:35:29.573Z,95544.00
2024-05-09T06:36:29.425Z,95544.00
2024-05-09T06:37:29.423Z,95542.00
2024-05-09T06:38:29.473Z,95541.00
2024-05-09T06:39:29.434Z,95539.00
2024-05-09T06:40:36.374Z,95536.00
2024-05-09T06:41:30.542Z,95537.00
2024-05-09T06:42:29.444Z,95537.00
2024-05-09T06:43:29.450Z,95537.00
2024-05-09T06:44:29.607Z,95536.00
2024-05-09T06:45:29.442Z,95538.00
2024-05-09T06:46:29.479Z,95538.00
2024-05-09T06:47:29.583Z,95538.00
2024-05-09T06:48:29.647Z,95538.00
2024-05-09T06:49:29.467Z,95539.00
2024-05-09T06:50:35.759Z,95539.00
2024-05-09T06:51:30.461Z,95542.00
2024-05-09T06:52:29.459Z,95542.00
2024-05-09T06:53:29.632Z,95544.00
2024-05-09T06:54:29.459Z,95542.00
2024-05-09T06:55:29.443Z,95544.00
2024-05-09T06:56:29.458Z,95542.00
2024-05-09T06:57:29.438Z,95541.00
2024-05-09T06:58:29.458Z,95539.00
2024-05-09T06:59:29.585Z,95539.00
2024-05-09T07:00:35.852Z,95536.00
2024-05-09T07:01:30.526Z,95537.00
2024-05-09T07:02:29.534Z,95538.00
2024-05-09T07:03:29.616Z,95539.00
2024-05-09T07:04:29.580Z,95539.00
2024-05-09T07:05:29.520Z,95538.00
2024-05-09T07:06:29.505Z,95540.00
2024-05-09T07:07:29.462Z,95540.00
2024-05-09T07:08:29.523Z,95541.00
2024-05-09T07:09:29.455Z,95543.00
2024-05-09T07:10:34.770Z,95542.00
2024-05-09T07:11:30.605Z,95543.00
2024-05-09T07:12:29.597Z,95544.00
2024-05-09T07:13:29.454Z,95544.00
2024-05-09T07:14:29.688Z,95540.00
2024-05-09T07:15:29.460Z,95540.00
2024-05-09T07:16:29.467Z,95538.00
2024-05-09T07:17:29.717Z,95538.00
2024-05-09T07:18:29.785Z,95536.00
2024-05-09T07:19:29.596Z,95536.00
2024-05-09T07:20:34.493Z,95536.00
2024-05-09T07:21:30.495Z,95534.00
2024-05-09T07:22:29.514Z,95533.00
2024-05-09T07:23:29.519Z,95532.00
2024-05-09T07:24:29.483Z,95529.00
2024-05-09T07:25:29.722Z,95529.00
2024-05-09T07:26:29.532Z,95526.00
2024-05-09T07:27:29.504Z,95526.00
2024-05-09T07:28:29.508Z,95528.00
2024-05-09T07:29:29.606Z,95525.00
2024-05-09T07:30:33.385Z,95525.00
2024-05-09T07:31:30.615Z,95523.00
2024-05-09T07:32:29.719Z,95524.00
2024-05-09T07:33:29.771Z,95522.00
2024-05-09T07:34:29.661Z,95521.00
2024-05-09T07:35:29.791Z,95521.00
2024-05-09T07:36:29.578Z,95524.00
2024-05-09T07:37:29.609Z,95527.00
2024-05-09T07:38:29.754Z,95525.00
2024-05-09T07:39:29.623Z,95527.00
2024-05-09T07:40:35.639Z,95524.00
2024-05-09T07:41:30.794Z,95525.00
2024-05-09T07:42:29.647Z,95527.00
2024-05-09T07:43:29.639Z,95525.00
2024-05-09T07:44:29.786Z,95526.00
2024-05-09T07:45:45.835Z,95524.00
2024-05-09T07:47:37.002Z,95522.00
2024-05-09T07:48:57.294Z,95522.00
2024-05-09T07:50:01.224Z,95519.00
2024-05-09T07:53:08.519Z,95520.00
2024-05-09T07:53:32.638Z,95519.00
2024-05-09T07:53:40.545Z,95518.00
2024-05-09T07:54:30.842Z,95516.00
2024-05-09T07:55:29.927Z,95518.00
2024-05-09T07:56:30.075Z,95515.00
2024-05-09T07:57:29.709Z,95513.00
2024-05-09T07:58:29.679Z,95514.00
2024-05-09T07:59:30.100Z,95512.00
2024-05-09T08:00:31.814Z,95511.00
2024-05-09T08:01:29.895Z,95513.00
2024-05-09T08:02:29.965Z,95514.00
2024-05-09T08:03:29.896Z,95514.00
2024-05-09T08:04:30.059Z,95512.00
2024-05-09T08:05:30.090Z,95511.00
2024-05-09T08:06:29.916Z,95512.00
2024-05-09T08:07:29.872Z,95515.00
2024-05-09T08:08:29.932Z,95515.00
2024-05-09T08:09:29.951Z,95514.00
2024-05-09T08:10:29.992Z,95511.00
2024-05-09T08:11:30.078Z,95512.00
2024-05-09T08:12:30.074Z,95511.00
2024-05-09T08:13:30.012Z,95512.00
2024-05-09T08:14:30.076Z,95510.00
2024-05-09T08:15:30.111Z,95511.00
2024-05-09T08:16:30.230Z,95511.00
2024-05-09T08:17:30.210Z,95509.00
2024-05-09T08:18:30.538Z,95508.00
2024-05-09T08:19:30.209Z,95507.00
2024-05-09T08:20:33.727Z,95508.00
2024-05-09T08:21:31.310Z,95506.00
2024-05-09T08:22:30.275Z,95507.00
2024-05-09T08:23:30.283Z,95509.00
2024-05-09T08:24:30.409Z,95506.00
2024-05-09T08:25:30.305Z,95506.00
2024-05-09T08:26:30.303Z,95506.00
2024-05-09T08:27:30.361Z,95505.00
2024-05-09T08:28:30.355Z,95502.00
2024-05-09T08:29:30.320Z,95504.00
2024-05-09T08:30:36.365Z,95502.00
2024-05-09T08:31:31.534Z,95500.00
2024-05-09T08:32:30.461Z,95502.00
2024-05-09T08:33:30.526Z,95501.00
2024-05-09T08:34:30.442Z,95501.00
2024-05-09T08:35:30.370Z,95501.00
2024-05-09T08:36:30.459Z,95502.00
2024-05-09T08:37:35.007Z,95501.00
2024-05-09T08:38:31.405Z,95503.00
2024-05-09T08:39:30.409Z,95502.00
2024-05-09T08:40:35.012Z,95502.00
2024-05-09T08:41:31.376Z,95502.00
2024-05-09T08:42:30.436Z,95501.00
2024-05-09T08:43:30.422Z,95501.00
2024-05-09T08:44:30.427Z,95501.00
2024-05-09T08:45:30.549Z,95499.00
2024-05-09T08:46:30.462Z,95499.00
2024-05-09T08:47:30.479Z,95498.00
2024-05-09T08:48:30.641Z,95496.00
2024-05-09T08:49:30.588Z,95496.00
2024-05-09T08:50:37.864Z,95498.00
2024-05-09T08:51:31.426Z,95495.00
2024-05-09T08:52:30.448Z,95494.00
2024-05-09T08:53:30.382Z,95494.00
2024-05-09T08:54:30.521Z,95490.00
2024-05-09T08:55:30.410Z,95487.00
2024-05-09T08:56:30.412Z,95490.00
2024-05-09T08:57:30.451Z,95490.00
2024-05-09T08:58:30.418Z,95486.00
2024-05-09T08:59:30.428Z,95488.00
2024-05-09T09:00:36.567Z,95485.00
2024-05-09T09:01:31.513Z,95486.00
2024-05-09T09:02:30.629Z,95485.00
2024-05-09T09:03:30.761Z,95485.00
2024-05-09T09:04:30.649Z,95486.00
2024-05-09T09:05:30.633Z,95485.00
2024-05-09T09:06:30.495Z,95482.00
2024-05-09T09:07:30.493Z,95480.00
2024-05-09T09:08:30.443Z,95479.00
2024-05-09T09:09:30.497Z,95480.00
2024-05-09T09:10:32.503Z,95479.00
2024-05-09T09:11:30.504Z,95480.00
2024-05-09T09:12:30.479Z,95481.00
2024-05-09T09:13:30.441Z,95478.00
2024-05-09T09:14:30.435Z,95479.00
2024-05-09T09:15:30.477Z,95478.00
2024-05-09T09:16:30.516Z,95477.00
2024-05-09T09:17:30.552Z,95477.00
2024-05-09T09:18:31.044Z,95475.00
2024-05-09T09:19:30.521Z,95475.00
2024-05-09T09:20:36.215Z,95472.00
2024-05-09T09:21:31.508Z,95469.00
2024-05-09T09:22:30.455Z,95473.00
2024-05-09T09:23:30.791Z,95472.00
2024-05-09T09:24:30.475Z,95473.00
2024-05-09T09:25:30.452Z,95472.00
2024-05-09T09:26:30.458Z,95468.00
2024-05-09T09:27:30.520Z,95466.00
2024-05-09T09:28:30.463Z,95466.00
2024-05-09T09:29:30.450Z,95464.00
2024-05-09T09:30:36.583Z,95467.00
2024-05-09T09:31:31.548Z,95463.00
2024-05-09T09:32:30.603Z,95463.00
2024-05-09T09:33:30.515Z,95462.00
2024-05-09T09:34:30.645Z,95463.00
2024-05-09T09:35:30.480Z,95463.00
2024-05-09T09:36:30.484Z,95463.00
2024-05-09T09:37:30.487Z,95461.00
2024-05-09T09:38:30.492Z,95460.00
2024-05-09T09:39:30.514Z,95458.00
2024-05-09T09:40:32.959Z,95459.00
2024-05-09T09:41:30.485Z,95459.00
2024-05-09T09:42:30.507Z,95452.00
2024-05-09T09:43:30.472Z,95453.00
2024-05-09T09:44:30.527Z,95452.00
2024-05-09T09:45:30.547Z,95448.00
2024-05-09T09:46:30.505Z,95447.00
2024-05-09T09:47:30.616Z,95447.00
2024-05-09T09:48:30.726Z,95447.00
2024-05-09T09:49:30.482Z,95445.00
2024-05-09T09:50:34.474Z,95444.00
2024-05-09T09:51:30.524Z,95444.00
2024-05-09T09:52:30.504Z,95443.00
2024-05-09T09:53:30.455Z,95442.00
2024-05-09T09:54:30.538Z,95445.00
2024-05-09T09:55:30.483Z,95441.00
2024-05-09T09:56:30.504Z,95441.00
2024-05-09T09:57:30.478Z,95441.00
2024-05-09T09:58:30.573Z,95440.00
2024-05-09T09:59:30.481Z,95439.00
2024-05-09T10:00:33.209Z,95437.00
2024-05-09T10:01:30.549Z,95437.00
2024-05-09T10:02:30.689Z,95435.00
2024-05-09T10:03:30.628Z,95434.00
2024-05-09T10:04:30.558Z,95432.00
2024-05-09T10:05:30.965Z,95430.00
2024-05-09T10:06:30.598Z,95429.00
2024-05-09T10:07:30.485Z,95428.00
2024-05-09T10:08:30.489Z,95427.00
2024-05-09T10:09:30.519Z,95426.00
2024-05-09T10:10:32.880Z,95420.00
2024-05-09T10:11:31.669Z,95421.00
2024-05-09T10:12:30.573Z,95420.00
2024-05-09T10:13:30.527Z,95419.00
2024-05-09T10:14:30.565Z,95415.00
2024-05-09T10:15:30.681Z,95412.00
2024-05-09T10:16:30.709Z,95411.00
2024-05-09T10:17:30.793Z,95406.00
2024-05-09T10:18:32.730Z,95405.00
2024-05-09T10:19:30.886Z,95401.00
2024-05-09T10:20:32.800Z,95401.00
2024-05-09T10:21:30.850Z,95401.00
2024-05-09T10:22:30.800Z,95401.00
2024-05-09T10:23:30.831Z,95397.00
2024-05-09T10:24:30.909Z,95398.00
2024-05-09T10:25:31.011Z,95398.00
2024-05-09T10:26:30.970Z,95398.00
2024-05-09T10:27:31.135Z,95398.00
2024-05-09T10:28:31.113Z,95397.00
2024-05-09T10:29:31.172Z,95398.00
2024-05-09T10:30:35.903Z,95395.00
2024-05-09T10:31:32.318Z,95393.00
2024-05-09T10:32:31.306Z,95396.00
2024-05-09T10:33:31.311Z,95392.00
2024-05-09T10:34:31.288Z,95391.00
2024-05-09T10:35:31.234Z,95392.00
2024-05-09T10:36:31.331Z,95391.00
2024-05-09T10:37:31.307Z,95389.00
2024-05-09T10:38:31.264Z,95387.00
2024-05-09T10:39:31.380Z,95385.00
2024-05-09T10:40:32.084Z,95385.00
2024-05-09T10:41:31.434Z,95383.00
2024-05-09T10:42:31.536Z,95384.00
2024-05-09T10:43:31.555Z,95383.00
2024-05-09T10:44:31.662Z,95382.00
2024-05-09T10:45:31.706Z,95381.00
2024-05-09T10:46:31.839Z,95381.00
2024-05-09T10:47:31.934Z,95380.00
2024-05-09T10:48:31.952Z,95379.00
2024-05-09T10:49:32.061Z,95378.00
2024-05-09T10:50:34.356Z,95380.00
2024-05-09T10:51:32.035Z,95377.00
2024-05-09T10:52:32.023Z,95376.00
2024-05-09T10:53:32.017Z,95376.00
2024-05-09T10:54:32.064Z,95373.00
2024-05-09T10:55:32.084Z,95375.00
2024-05-09T10:56:32.059Z,95372.00
2024-05-09T10:57:32.040Z,95370.00
2024-05-09T10:58:32.035Z,95369.00
2024-05-09T10:59:32.016Z,95367.00
2024-05-09T11:00:35.881Z,95366.00
2024-05-09T11:01:32.112Z,95366.00
2024-05-09T11:02:32.278Z,95364.00
2024-05-09T11:03:32.349Z,95362.00
2024-05-09T11:04:32.109Z,95361.00
2024-05-09T11:05:32.149Z,95355.00
2024-05-09T11:06:32.051Z,95355.00
2024-05-09T11:07:32.060Z,95353.00
2024-05-09T11:08:32.083Z,95354.00
2024-05-09T11:09:32.051Z,95353.00
2024-05-09T11:10:34.312Z,95351.00
2024-05-09T11:11:32.116Z,95349.00
2024-05-09T11:12:32.082Z,95350.00
2024-05-09T11:13:32.314Z,95348.00
2024-05-09T11:14:32.045Z,95347.00
2024-05-09T11:15:32.112Z,95346.00
2024-05-09T11:16:32.066Z,95343.00
2024-05-09T11:17:32.130Z,95345.00
2024-05-09T11:18:35.511Z,95344.00
2024-05-09T11:19:33.216Z,95346.00
2024-05-09T11:20:35.014Z,95343.00
2024-05-09T11:21:32.138Z,95340.00
2024-05-09T11:22:32.064Z,95339.00
2024-05-09T11:23:32.070Z,95338.00
2024-05-09T11:24:32.072Z,95336.00
2024-05-09T11:25:32.047Z,95336.00
2024-05-09T11:26:32.049Z,95336.00
2024-05-09T11:27:32.109Z,95333.00
2024-05-09T11:28:32.113Z,95335.00
2024-05-09T11:29:32.075Z,95333.00
2024-05-09T11:30:32.746Z,95333.00
2024-05-09T11:31:32.159Z,95332.00
2024-05-09T11:32:32.164Z,95334.00
2024-05-09T11:33:32.191Z,95333.00
2024-05-09T11:34:32.137Z,95330.00
2024-05-09T11:35:32.075Z,95329.00
2024-05-09T11:36:32.190Z,95327.00
2024-05-09T11:37:34.659Z,95329.00
2024-05-09T11:38:32.062Z,95323.00
2024-05-09T11:39:32.131Z,95321.00
2024-05-09T11:40:34.371Z,95322.00
2024-05-09T11:41:32.082Z,95317.00
2024-05-09T11:42:32.173Z,95316.00
2024-05-09T11:43:32.258Z,95317.00
2024-05-09T11:44:32.067Z,95311.00
2024-05-09T11:45:32.119Z,95311.00
2024-05-09T11:46:32.054Z,95308.00